Time;durP1;ratioP1;P1;durP2;ratioP2;P2;SDS_P1;SDS_P2;PMS_P1;PMS_P2;Temp;Humidity;BMP_temperature;BMP_pressure;BME280_temperature;BME280_humidity;BME280_pressure;Samples;Min_cycle;Max_cycle;Signal;HPM_P1;HPM_P2
2022/08/30 00:01:30;;;;;;;20.25;10.20;;;;;;;16.55;83.41;101930.38;5010552;28;20033;-58
2022/08/30 00:03:57;;;;;;;20.10;10.60;;;;;;;16.62;83.24;101941.91;5010415;28;20207;-57
2022/08/30 00:06:24;;;;;;;19.50;10.60;;;;;;;16.57;83.58;101939.25;5009780;28;20113;-57
2022/08/30 00:08:51;;;;;;;21.75;11.23;;;;;;;16.58;83.45;101938.94;5011022;28;20030;-59
2022/08/30 00:11:23;;;;;;;18.75;10.85;;;;;;;16.53;83.94;101942.69;5010285;28;20026;-60
2022/08/30 00:13:51;;;;;;;18.95;10.57;;;;;;;16.48;84.05;101930.81;5010105;28;20474;-59
2022/08/30 00:16:18;;;;;;;19.83;10.77;;;;;;;16.50;84.19;101934.13;5010537;28;20026;-60
2022/08/30 00:18:43;;;;;;;21.48;10.85;;;;;;;16.48;84.20;101934.44;5010647;28;20458;-60
2022/08/30 00:21:09;;;;;;;19.90;10.07;;;;;;;16.46;84.21;101930.31;5010860;28;20150;-60
2022/08/30 00:23:35;;;;;;;18.58;10.48;;;;;;;16.42;84.16;101932.13;5011611;28;20080;-60
2022/08/30 00:26:01;;;;;;;20.90;10.05;;;;;;;16.42;84.26;101929.31;5010603;28;20030;-58
2022/08/30 00:28:27;;;;;;;17.50;10.32;;;;;;;16.41;84.30;101936.03;5011206;28;20049;-60
2022/08/30 00:30:53;;;;;;;22.05;10.55;;;;;;;16.32;85.00;101938.78;4993628;28;20049;-60
2022/08/30 00:33:20;;;;;;;19.17;10.60;;;;;;;16.33;84.96;101948.81;5010736;28;20389;-60
2022/08/30 00:35:45;;;;;;;19.42;10.93;;;;;;;16.27;85.32;101941.72;5011075;28;20034;-61
2022/08/30 00:38:14;;;;;;;19.58;10.85;;;;;;;16.19;85.27;101923.75;5011398;28;20038;-61
2022/08/30 00:40:43;;;;;;;18.05;10.35;;;;;;;16.19;85.46;101940.50;5015008;28;20030;-60
2022/08/30 00:43:12;;;;;;;19.65;10.88;;;;;;;16.14;86.13;101926.69;5015603;28;20034;-59
2022/08/30 00:45:38;;;;;;;20.83;10.82;;;;;;;16.10;86.29;101934.03;4997168;28;20132;-58
2022/08/30 00:48:05;;;;;;;19.65;11.15;;;;;;;16.06;85.97;101934.66;4996843;28;20545;-60
2022/08/30 00:50:41;;;;;;;20.95;11.23;;;;;;;16.00;86.57;101935.94;5014322;28;20038;-60
2022/08/30 00:53:09;;;;;;;19.40;11.15;;;;;;;15.92;86.66;101930.31;5014187;28;20084;-60
2022/08/30 00:55:35;;;;;;;18.67;11.13;;;;;;;15.95;86.96;101940.81;5014703;28;20034;-59
2022/08/30 00:58:03;;;;;;;18.75;11.52;;;;;;;15.92;86.68;101936.69;5015237;28;20029;-60
2022/08/30 01:00:29;;;;;;;19.42;10.90;;;;;;;15.95;86.63;101940.81;4997729;28;20025;-60
2022/08/30 01:02:55;;;;;;;19.98;11.57;;;;;;;15.93;86.78;101941.13;5014668;28;20510;-60
2022/08/30 01:05:22;;;;;;;20.23;11.57;;;;;;;15.93;87.16;101943.09;5013704;28;20036;-59
2022/08/30 01:07:48;;;;;;;22.27;12.20;;;;;;;15.92;87.20;101935.88;5013770;28;20501;-60
2022/08/30 01:10:15;;;;;;;19.65;11.75;;;;;;;15.89;87.21;101938.16;5013535;28;20022;-60
2022/08/30 01:12:42;;;;;;;21.80;11.80;;;;;;;15.90;87.24;101941.75;5013235;28;20113;-59
2022/08/30 01:15:11;;;;;;;21.85;12.27;;;;;;;15.82;87.91;101945.28;5014394;28;20026;-59
2022/08/30 01:17:37;;;;;;;19.63;12.10;;;;;;;15.82;87.38;101945.28;5050663;23;20382;-56
2022/08/30 01:20:11;;;;;;;20.50;12.60;;;;;;;15.76;87.93;101939.00;5054413;28;20029;-56
2022/08/30 01:22:48;;;;;;;19.92;12.20;;;;;;;15.78;87.31;101947.03;5053705;28;20036;-55
2022/08/30 01:25:21;;;;;;;19.30;12.02;;;;;;;15.80;87.85;101961.50;5054302;28;20021;-55
2022/08/30 01:27:53;;;;;;;19.98;12.40;;;;;;;15.80;87.90;101958.72;5053777;28;20056;-56
2022/08/30 01:30:18;;;;;;;20.83;12.43;;;;;;;15.77;88.23;101951.81;5054075;28;20040;-57
2022/08/30 01:32:46;;;;;;;20.33;12.68;;;;;;;15.77;88.45;101954.59;5053736;28;20036;-57
2022/08/30 01:35:16;;;;;;;20.30;12.77;;;;;;;15.74;88.48;101946.84;5054365;28;20135;-55
2022/08/30 01:37:43;;;;;;;19.90;12.02;;;;;;;15.79;88.55;101954.28;5053662;28;20048;-56
2022/08/30 01:40:08;;;;;;;21.38;12.48;;;;;;;15.79;88.25;101954.28;5054602;28;20108;-56
2022/08/30 01:42:34;;;;;;;21.88;12.20;;;;;;;15.79;88.19;101951.47;5054370;28;20413;-56
2022/08/30 01:44:59;;;;;;;21.88;13.10;;;;;;;15.75;88.59;101951.28;5054924;28;20476;-57
2022/08/30 01:47:25;;;;;;;20.83;12.60;;;;;;;15.72;88.98;101963.91;5054005;28;20033;-54
2022/08/30 01:49:50;;;;;;;21.00;12.57;;;;;;;15.71;88.71;101953.06;5052950;28;20074;-55
2022/08/30 01:52:18;;;;;;;20.02;12.45;;;;;;;15.71;88.68;101950.28;5053143;28;20029;-55
2022/08/30 01:54:44;;;;;;;19.35;12.60;;;;;;;15.66;88.75;101948.44;5053672;28;20163;-54
2022/08/30 01:57:13;;;;;;;19.52;13.00;;;;;;;15.56;89.30;101934.72;5053647;28;20040;-55
2022/08/30 01:59:42;;;;;;;22.25;13.40;;;;;;;15.56;89.10;101948.66;5053654;28;20527;-55
2022/08/30 02:02:07;;;;;;;20.98;13.20;;;;;;;15.49;89.65;101943.50;5053581;28;20094;-56
2022/08/30 02:04:35;;;;;;;19.48;13.05;;;;;;;15.44;89.94;101947.25;5053225;28;20462;-55
2022/08/30 02:07:01;;;;;;;20.38;13.20;;;;;;;15.39;89.64;101947.38;5053530;28;20033;-55
2022/08/30 02:09:26;;;;;;;20.50;13.80;;;;;;;15.36;90.16;101939.63;5052613;28;20021;-54
2022/08/30 02:11:52;;;;;;;20.98;13.30;;;;;;;15.30;90.64;101943.66;5052703;28;20056;-55
2022/08/30 02:14:17;;;;;;;22.20;13.38;;;;;;;15.27;90.76;101941.47;5052529;28;20492;-54
2022/08/30 02:16:42;;;;;;;20.60;13.18;;;;;;;15.25;91.54;101943.75;5052585;28;20049;-55
2022/08/30 02:19:08;;;;;;;20.38;13.23;;;;;;;15.24;90.98;101940.16;5053709;28;20102;-57
2022/08/30 02:21:33;;;;;;;20.85;13.57;;;;;;;15.19;91.34;101936.63;5052799;28;20033;-58
2022/08/30 02:23:59;;;;;;;23.55;14.00;;;;;;;15.17;90.65;101931.34;5053752;28;20100;-55
2022/08/30 02:26:24;;;;;;;20.65;13.23;;;;;;;15.14;91.04;101934.78;5052793;28;20357;-55
2022/08/30 02:28:51;;;;;;;21.35;13.82;;;;;;;15.09;91.54;101938.50;5053369;28;20032;-56
2022/08/30 02:31:19;;;;;;;22.17;13.80;;;;;;;15.04;91.84;101930.22;5053749;28;20033;-56
2022/08/30 02:33:44;;;;;;;20.38;13.85;;;;;;;15.01;92.67;101932.81;5053291;28;20025;-56
2022/08/30 02:36:10;;;;;;;21.35;14.57;;;;;;;15.01;92.28;101936.44;5052813;28;20029;-54
2022/08/30 02:38:35;;;;;;;20.23;13.80;;;;;;;14.97;92.67;101929.84;5052822;28;20025;-56
2022/08/30 02:41:00;;;;;;;22.00;13.77;;;;;;;14.95;92.66;101943.25;5053107;28;20029;-56
2022/08/30 02:43:26;;;;;;;20.85;13.77;;;;;;;14.94;92.49;101939.63;5052948;28;20340;-55
2022/08/30 02:45:52;;;;;;;21.63;14.32;;;;;;;14.98;92.06;101942.63;5052822;28;20065;-56
2022/08/30 02:48:18;;;;;;;21.58;14.38;;;;;;;14.97;92.95;101938.19;5053016;28;20060;-55
2022/08/30 02:50:46;;;;;;;21.73;13.98;;;;;;;14.95;93.09;101934.88;5052093;28;20112;-54
2022/08/30 02:53:11;;;;;;;21.95;14.45;;;;;;;14.95;92.91;101921.78;5052512;28;20033;-56
2022/08/30 02:55:37;;;;;;;21.77;14.60;;;;;;;14.96;92.60;101926.22;5052997;28;20032;-55
2022/08/30 02:58:02;;;;;;;20.35;14.35;;;;;;;14.94;92.48;101927.66;5052475;28;20029;-54
2022/08/30 03:00:28;;;;;;;22.00;14.80;;;;;;;14.90;92.90;101927.44;5051946;28;20041;-55
2022/08/30 03:02:53;;;;;;;22.17;14.27;;;;;;;14.87;93.29;101914.16;5043587;28;20495;-55
2022/08/30 03:05:19;;;;;;;21.63;14.88;;;;;;;14.83;93.53;101915.91;5052674;28;20033;-57
2022/08/30 03:07:46;;;;;;;21.50;14.77;;;;;;;14.86;93.44;101920.03;5052621;28;20378;-56
2022/08/30 03:10:12;;;;;;;20.73;14.60;;;;;;;14.85;93.48;101919.22;5051856;28;20044;-53
2022/08/30 03:12:37;;;;;;;21.08;14.57;;;;;;;14.84;93.44;101925.06;5051342;28;20043;-54
2022/08/30 03:15:05;;;;;;;21.77;14.48;;;;;;;14.81;93.48;101916.22;5051666;28;20465;-55
2022/08/30 03:17:30;;;;;;;21.30;14.80;;;;;;;14.77;93.96;101906.00;5050877;28;20045;-54
2022/08/30 03:19:59;;;;;;;20.52;14.65;;;;;;;14.73;94.50;101902.16;5051694;28;20032;-55
2022/08/30 03:22:25;;;;;;;22.42;15.00;;;;;;;14.70;94.43;101911.13;5052116;28;20611;-55
2022/08/30 03:24:50;;;;;;;20.67;14.38;;;;;;;14.69;94.03;101913.09;5052094;28;20044;-54
2022/08/30 03:27:15;;;;;;;21.45;15.60;;;;;;;14.65;94.48;101912.88;5052050;28;20021;-55
2022/08/30 03:29:41;;;;;;;21.95;15.57;;;;;;;14.65;94.75;101917.59;5052164;28;20029;-55
2022/08/30 03:32:06;;;;;;;23.85;15.70;;;;;;;14.61;94.53;101911.00;5051978;28;20033;-55
2022/08/30 03:34:31;;;;;;;22.75;15.88;;;;;;;14.58;95.23;101914.41;5052143;28;20145;-56
2022/08/30 03:36:57;;;;;;;21.58;15.48;;;;;;;14.56;94.32;101919.44;5051825;28;20025;-56
2022/08/30 03:39:23;;;;;;;23.95;15.88;;;;;;;14.55;94.90;101918.63;5052322;28;20044;-56
2022/08/30 03:41:49;;;;;;;22.10;15.23;;;;;;;14.55;95.61;101926.19;5051975;28;20569;-56
2022/08/30 03:44:15;;;;;;;23.70;15.93;;;;;;;14.53;95.48;101923.69;5051907;28;20037;-56
2022/08/30 03:46:40;;;;;;;21.83;15.27;;;;;;;14.54;95.18;101921.72;5051159;28;20055;-55
2022/08/30 03:49:07;;;;;;;23.02;14.90;;;;;;;14.53;95.38;101911.72;5051444;28;20105;-55
2022/08/30 03:51:32;;;;;;;23.40;16.23;;;;;;;14.53;95.31;101912.53;5052132;28;20033;-56
2022/08/30 03:53:58;;;;;;;23.83;15.82;;;;;;;14.50;95.98;101907.56;5051157;28;20036;-56
2022/08/30 03:56:24;;;;;;;22.45;15.77;;;;;;;14.48;95.98;101919.03;5051679;28;20040;-56
2022/08/30 03:58:50;;;;;;;22.80;16.05;;;;;;;14.50;95.46;101913.13;5033492;28;20021;-55
2022/08/30 04:01:15;;;;;;;23.05;15.57;;;;;;;14.47;95.84;101922.94;5050875;28;20043;-55
2022/08/30 04:03:40;;;;;;;22.70;16.38;;;;;;;14.44;96.21;101919.94;5051142;28;20036;-55
2022/08/30 04:06:06;;;;;;;22.90;16.55;;;;;;;14.43;96.04;101921.91;5051362;28;20021;-55
2022/08/30 04:08:31;;;;;;;23.67;16.95;;;;;;;14.40;96.47;101924.50;5051476;28;20399;-57
2022/08/30 04:10:58;;;;;;;22.60;16.27;;;;;;;14.38;96.14;101921.19;5051267;28;20041;-55
2022/08/30 04:13:23;;;;;;;25.83;17.30;;;;;;;14.37;96.64;101928.69;5050304;28;20029;-56
2022/08/30 04:15:49;;;;;;;24.95;16.73;;;;;;;14.34;96.71;101915.41;5050415;28;20029;-55
2022/08/30 04:18:15;;;;;;;22.80;16.88;;;;;;;14.33;96.32;101922.09;5050884;28;20055;-55
2022/08/30 04:20:41;;;;;;;23.70;17.33;;;;;;;14.30;97.15;101922.69;5050591;28;20029;-55
2022/08/30 04:23:07;;;;;;;22.63;17.35;;;;;;;14.28;97.10;101920.22;5051356;28;20033;-56
2022/08/30 04:25:37;;;;;;;25.10;17.42;;;;;;;14.27;96.94;101926.09;5051386;28;20033;-56
2022/08/30 04:28:03;;;;;;;24.02;16.83;;;;;;;14.28;97.02;101924.94;5051214;28;20028;-56
2022/08/30 04:30:29;;;;;;;24.80;17.48;;;;;;;14.28;96.87;101916.59;5051007;28;20370;-56
2022/08/30 04:32:54;;;;;;;23.27;16.77;;;;;;;14.26;96.83;101928.06;5050567;28;20040;-56
2022/08/30 04:35:20;;;;;;;23.27;16.70;;;;;;;14.25;97.01;101925.59;5050781;28;20036;-56
2022/08/30 04:37:45;;;;;;;25.85;17.50;;;;;;;14.20;97.02;101932.06;5051092;28;20021;-55
2022/08/30 04:40:12;;;;;;;23.95;17.30;;;;;;;14.18;97.46;101937.09;5050880;28;20033;-54
2022/08/30 04:42:39;;;;;;;24.45;17.95;;;;;;;14.14;97.27;101924.91;5050775;28;20086;-56
2022/08/30 04:45:07;;;;;;;25.67;18.05;;;;;;;14.13;97.81;101931.59;5051126;28;20056;-57
2022/08/30 04:47:33;;;;;;;25.92;18.60;;;;;;;14.10;97.80;101929.44;5049679;28;20044;-54
2022/08/30 04:49:58;;;;;;;24.95;18.20;;;;;;;14.07;98.31;101935.63;5050400;28;20481;-55
2022/08/30 04:52:23;;;;;;;25.27;18.77;;;;;;;14.04;97.95;101946.22;5050337;28;20495;-55
2022/08/30 04:54:56;;;;;;;24.55;19.13;;;;;;;13.97;98.39;101934.66;5050468;28;20108;-54
2022/08/30 04:57:23;;;;;;;25.80;19.30;;;;;;;14.02;98.68;101937.38;5050123;28;20419;-55
2022/08/30 04:59:48;;;;;;;24.90;18.83;;;;;;;14.03;98.21;101941.78;5032562;28;20017;-56
2022/08/30 05:02:13;;;;;;;24.23;18.45;;;;;;;14.11;97.58;101951.41;5050552;28;20507;-56
2022/08/30 05:05:38;;;;;;;25.65;18.38;;;;;;;14.13;97.65;101951.94;5050193;28;20047;-55
2022/08/30 05:07:24;;;;;;;25.38;18.52;;;;;;;14.15;97.66;101958.03;5050166;28;20036;-55
2022/08/30 05:09:49;;;;;;;24.23;18.38;;;;;;;14.15;97.83;101943.25;5050938;28;20036;-55
2022/08/30 05:12:14;;;;;;;23.83;17.83;;;;;;;14.19;97.83;101944.31;5050114;28;20090;-54
2022/08/30 05:14:40;;;;;;;25.15;18.15;;;;;;;14.20;97.22;101945.97;5049816;28;20056;-54
2022/08/30 05:17:05;;;;;;;25.58;18.65;;;;;;;14.20;96.89;101946.78;5049364;28;20056;-57
2022/08/30 05:19:32;;;;;;;25.55;18.42;;;;;;;14.22;97.08;101959.59;5049534;28;20388;-54
2022/08/30 05:21:58;;;;;;;25.08;19.15;;;;;;;14.23;97.40;101958.47;5050223;28;20408;-53
2022/08/30 05:24:24;;;;;;;26.10;19.13;;;;;;;14.23;96.84;101953.69;5050239;28;20043;-59
2022/08/30 05:26:49;;;;;;;26.63;18.83;;;;;;;14.22;97.66;101951.22;5054072;28;20107;-56
2022/08/30 05:29:14;;;;;;;24.88;19.48;;;;;;;14.23;97.12;101952.88;5053851;28;20383;-55
2022/08/30 05:31:39;;;;;;;25.27;19.20;;;;;;;14.24;97.18;101957.31;5053556;28;20022;-55
2022/08/30 05:34:05;;;;;;;26.33;19.77;;;;;;;14.24;97.25;101962.91;5053465;28;20033;-53
2022/08/30 05:36:33;;;;;;;26.75;20.02;;;;;;;14.22;97.65;101968.75;5053522;28;20025;-62
2022/08/30 05:38:59;;;;;;;26.02;19.45;;;;;;;14.24;97.06;101972.06;5053934;28;20036;-57
2022/08/30 05:41:25;;;;;;;27.77;20.13;;;;;;;14.29;97.17;101962.78;5054010;28;20025;-56
2022/08/30 05:43:52;;;;;;;27.63;19.50;;;;;;;14.33;97.00;101973.00;5054217;28;20054;-57
2022/08/30 05:46:18;;;;;;;25.98;19.00;;;;;;;14.41;96.84;101974.28;5053163;28;20025;-57
2022/08/30 05:48:44;;;;;;;26.05;19.75;;;;;;;14.48;96.31;101968.34;5053346;28;20366;-56
2022/08/30 05:51:12;;;;;;;27.75;19.67;;;;;;;14.52;95.96;101958.22;5053896;28;20028;-57
2022/08/30 05:53:39;;;;;;;25.25;18.27;;;;;;;14.66;95.52;101966.59;5053562;28;20029;-57
2022/08/30 05:56:07;;;;;;;24.60;18.83;;;;;;;14.68;95.50;101963.56;5053906;28;20048;-57
2022/08/30 05:58:33;;;;;;;25.25;18.55;;;;;;;14.78;94.91;101974.50;5053370;28;20028;-56
2022/08/30 06:00:59;;;;;;;26.85;18.70;;;;;;;14.87;94.56;101977.41;5052973;28;20028;-56
2022/08/30 06:03:25;;;;;;;25.42;18.85;;;;;;;14.94;93.83;101983.38;5053689;28;20037;-56
2022/08/30 06:05:51;;;;;;;25.58;18.17;;;;;;;14.98;93.44;101976.06;5053607;28;20024;-56
2022/08/30 06:08:16;;;;;;;24.80;18.35;;;;;;;15.04;93.05;101976.78;5053957;28;20082;-55
2022/08/30 06:10:42;;;;;;;26.05;17.52;;;;;;;15.16;92.93;101977.09;5053921;28;20087;-55
2022/08/30 06:13:07;;;;;;;24.23;18.17;;;;;;;15.22;92.20;101975.88;5053307;28;20033;-56
2022/08/30 06:15:33;;;;;;;24.23;18.80;;;;;;;15.20;91.67;101977.31;5052832;28;20024;-56
2022/08/30 06:17:58;;;;;;;26.92;18.00;;;;;;;15.19;91.94;101968.13;5053514;28;20059;-55
2022/08/30 06:20:24;;;;;;;26.65;18.33;;;;;;;15.20;91.78;101969.78;5052927;28;20105;-53
2022/08/30 06:22:49;;;;;;;25.20;18.08;;;;;;;15.21;91.49;101974.22;5052947;28;20429;-55
2022/08/30 06:25:15;;;;;;;26.02;17.90;;;;;;;15.26;91.33;101970.50;5053406;28;20368;-56
2022/08/30 06:27:41;;;;;;;25.60;17.98;;;;;;;15.27;90.93;101966.56;5053726;28;20055;-55
2022/08/30 06:30:07;;;;;;;25.65;17.95;;;;;;;15.31;90.87;101967.59;5053903;28;20456;-55
2022/08/30 06:32:33;;;;;;;26.85;18.50;;;;;;;15.36;90.85;101967.50;5035541;28;20384;-56
2022/08/30 06:34:59;;;;;;;24.85;17.67;;;;;;;15.43;90.67;101970.69;5053163;28;20400;-57
2022/08/30 06:37:24;;;;;;;25.38;18.63;;;;;;;15.47;90.22;101962.50;5052579;28;20020;-56
2022/08/30 06:39:49;;;;;;;26.30;19.20;;;;;;;15.49;90.13;101965.81;5052687;28;20025;-56
2022/08/30 06:42:15;;;;;;;27.38;18.95;;;;;;;15.49;89.56;101962.22;5053657;28;20108;-56
2022/08/30 06:44:40;;;;;;;25.20;18.60;;;;;;;15.54;89.82;101971.28;5052756;28;20040;-54
2022/08/30 06:47:06;;;;;;;24.17;17.67;;;;;;;15.65;89.58;101968.25;5052490;28;20033;-55
2022/08/30 06:49:31;;;;;;;24.30;15.85;;;;;;;15.77;88.26;101973.31;5052993;28;20025;-54
2022/08/30 06:51:57;;;;;;;24.20;17.23;;;;;;;15.81;87.89;101969.56;5052924;28;20025;-54
2022/08/30 06:54:22;;;;;;;24.60;16.88;;;;;;;15.89;87.76;101965.22;5052562;28;20643;-50
2022/08/30 06:56:47;;;;;;;22.42;15.43;;;;;;;16.03;86.67;101968.81;5052372;28;20025;-48
2022/08/30 06:59:13;;;;;;;21.88;15.68;;;;;;;16.17;85.87;101977.13;5033482;28;20064;-54
2022/08/30 07:01:38;;;;;;;22.65;15.13;;;;;;;16.23;85.29;101972.25;5051095;28;20029;-54
2022/08/30 07:04:03;;;;;;;23.33;15.60;;;;;;;16.31;84.75;101974.25;5052213;28;20028;-53
2022/08/30 07:06:29;;;;;;;21.67;14.48;;;;;;;16.35;84.59;101968.88;5052420;28;20108;-54
2022/08/30 07:08:55;;;;;;;22.05;15.10;;;;;;;16.39;83.90;101964.28;5052684;28;20025;-54
2022/08/30 07:11:30;;;;;;;22.63;15.23;;;;;;;16.38;83.63;101960.66;5052891;28;20040;-55
2022/08/30 07:13:56;;;;;;;22.25;14.98;;;;;;;16.48;83.90;101967.94;5049899;28;20033;-54
2022/08/30 07:16:22;;;;;;;22.17;15.23;;;;;;;16.62;83.23;101973.47;5029086;28;20452;-54
2022/08/30 07:18:50;;;;;;;20.80;14.38;;;;;;;16.75;82.90;101965.31;5030279;28;20435;-54
2022/08/30 07:21:19;;;;;;;23.48;14.63;;;;;;;16.78;81.95;101965.47;5030541;28;20025;-54
2022/08/30 07:23:47;;;;;;;23.00;14.23;;;;;;;16.89;81.19;101971.63;5030378;28;20087;-54
2022/08/30 07:26:14;;;;;;;20.45;13.68;;;;;;;16.97;81.08;101972.81;5030388;28;20025;-54
2022/08/30 07:28:42;;;;;;;20.45;13.70;;;;;;;17.03;80.37;101985.53;5030451;28;20044;-53
2022/08/30 07:31:08;;;;;;;20.00;13.60;;;;;;;17.09;79.97;101977.81;5030507;28;20026;-54
2022/08/30 07:33:34;;;;;;;21.67;13.57;;;;;;;17.19;80.00;101977.53;5039067;28;20076;-53
2022/08/30 07:36:00;;;;;;;21.38;13.30;;;;;;;17.30;79.42;101973.28;5040367;28;20025;-53
2022/08/30 07:38:26;;;;;;;22.02;13.70;;;;;;;17.36;78.90;101982.34;5044473;28;20029;-55
2022/08/30 07:40:53;;;;;;;19.02;13.13;;;;;;;17.46;79.21;101984.03;5050380;28;20080;-54
2022/08/30 07:43:19;;;;;;;20.33;13.15;;;;;;;17.57;78.54;101990.13;5050018;28;20484;-54
2022/08/30 07:45:44;;;;;;;19.83;12.80;;;;;;;17.67;77.83;101991.78;5031897;28;20059;-53
2022/08/30 07:48:11;;;;;;;19.70;13.15;;;;;;;17.72;76.76;101992.44;5050069;28;20144;-54
2022/08/30 07:50:38;;;;;;;19.80;13.05;;;;;;;17.82;76.51;101988.50;5050176;28;20025;-54
2022/08/30 07:53:03;;;;;;;18.70;12.30;;;;;;;17.89;76.35;101990.81;5049902;28;20396;-55
2022/08/30 07:55:28;;;;;;;19.60;12.82;;;;;;;17.91;75.66;101992.13;5050116;28;20131;-56
2022/08/30 07:57:54;;;;;;;19.60;12.65;;;;;;;17.98;75.33;101991.69;5050061;28;20078;-53
2022/08/30 08:00:19;;;;;;;19.27;12.80;;;;;;;18.05;75.06;101996.75;5050064;28;20021;-54
2022/08/30 08:02:45;;;;;;;20.25;12.02;;;;;;;18.16;74.96;101991.69;5049902;28;20106;-53
2022/08/30 08:05:10;;;;;;;19.55;12.23;;;;;;;18.27;74.42;101981.78;5049870;28;20025;-55
2022/08/30 08:07:35;;;;;;;19.25;12.40;;;;;;;18.35;73.52;101980.94;5050142;28;20033;-54
2022/08/30 08:10:02;;;;;;;19.83;11.73;;;;;;;18.40;72.34;101985.56;5031931;28;20365;-52
2022/08/30 08:12:27;;;;;;;18.08;11.50;;;;;;;18.40;71.61;101989.16;5049606;28;20048;-54
2022/08/30 08:14:53;;;;;;;17.35;11.27;;;;;;;18.45;71.54;101990.97;5049550;28;20021;-55
2022/08/30 08:17:18;;;;;;;19.38;11.65;;;;;;;18.50;71.03;101982.41;5049785;28;20056;-54
2022/08/30 08:19:43;;;;;;;20.73;11.55;;;;;;;18.57;70.57;101992.28;5031895;28;20549;-53
2022/08/30 08:22:09;;;;;;;17.55;11.23;;;;;;;18.61;70.10;101996.06;5049821;28;20037;-54
2022/08/30 08:24:34;;;;;;;19.52;11.30;;;;;;;18.66;69.25;101993.88;5031620;28;20671;-53
2022/08/30 08:26:59;;;;;;;19.52;11.35;;;;;;;18.69;69.04;101995.22;5050103;28;20025;-54
2022/08/30 08:29:26;;;;;;;18.65;11.43;;;;;;;18.71;69.22;101990.06;5049876;28;20112;-53
2022/08/30 08:31:52;;;;;;;19.73;11.85;;;;;;;18.78;68.78;101993.22;5049633;28;20116;-53
2022/08/30 08:34:18;;;;;;;17.65;11.45;;;;;;;18.86;68.22;101985.91;5049458;28;20220;-53
2022/08/30 08:36:43;;;;;;;19.25;11.60;;;;;;;18.94;68.38;101992.69;5049789;28;20036;-54
2022/08/30 08:39:09;;;;;;;18.00;11.23;;;;;;;19.08;67.95;101993.28;5047910;28;20017;-54
2022/08/30 08:41:55;;;;;;;17.65;10.60;;;;;;;19.25;67.22;101995.19;5049703;28;20029;-54
2022/08/30 08:44:39;;;;;;;17.33;10.60;;;;;;;19.44;66.45;101991.94;5049641;28;20064;-53
2022/08/30 08:47:20;;;;;;;20.35;11.15;;;;;;;19.58;65.68;101999.28;5042892;28;20029;-54
2022/08/30 08:49:50;;;;;;;18.45;11.20;;;;;;;19.60;64.94;101994.97;5049538;28;20044;-53
2022/08/30 08:55:12;;;;;;;17.90;11.07;;;;;;;19.67;64.84;102002.84;5043434;28;20460;-54
2022/08/30 08:57:38;;;;;;;17.55;10.73;;;;;;;19.75;64.11;101999.16;5050162;28;20108;-54
2022/08/30 09:00:06;;;;;;;18.02;10.90;;;;;;;19.79;63.61;101999.28;5050546;28;20119;-52
2022/08/30 09:02:59;;;;;;;20.70;11.32;;;;;;;19.90;64.20;102005.38;5053200;28;20374;-52
2022/08/30 09:05:30;;;;;;;19.83;11.00;;;;;;;20.00;63.22;102004.13;5045155;28;20059;-53
2022/08/30 09:08:01;;;;;;;19.17;10.60;;;;;;;19.92;63.15;102003.03;5053204;28;20044;-53
2022/08/30 09:10:30;;;;;;;19.17;10.48;;;;;;;19.89;62.76;102004.53;5036123;28;20476;-54
2022/08/30 09:12:56;;;;;;;19.10;11.00;;;;;;;19.90;62.04;102011.00;5053088;28;20033;-53
2022/08/30 09:15:28;;;;;;;17.38;10.63;;;;;;;19.87;62.12;102006.03;5053212;28;20036;-54
2022/08/30 09:18:01;;;;;;;19.00;10.90;;;;;;;20.07;61.75;102004.41;5052874;28;20143;-53
2022/08/30 09:20:35;;;;;;;17.50;10.13;;;;;;;20.26;61.36;102007.53;5052688;28;20048;-56
2022/08/30 09:23:20;;;;;;;16.42;10.38;;;;;;;20.32;61.10;102004.50;5052889;28;20385;-54
2022/08/30 09:25:56;;;;;;;19.20;10.25;;;;;;;20.56;60.15;102015.03;5052978;28;20041;-54
2022/08/30 09:28:25;;;;;;;17.23;10.20;;;;;;;20.72;60.02;102001.94;5052905;28;20025;-53
2022/08/30 09:31:03;;;;;;;17.52;10.13;;;;;;;20.80;59.45;101994.63;5052704;28;20044;-54
2022/08/30 09:33:30;;;;;;;17.75;10.43;;;;;;;20.84;59.18;102005.97;5052857;28;20174;-53
2022/08/30 09:35:56;;;;;;;17.30;10.75;;;;;;;20.84;59.02;102011.59;5052958;28;20036;-56
2022/08/30 09:38:25;;;;;;;17.38;9.95;;;;;;;20.79;58.97;102004.22;5050784;28;20051;-53
2022/08/30 09:40:53;;;;;;;17.42;10.25;;;;;;;20.96;59.04;102010.78;5052679;28;20032;-55
2022/08/30 09:43:22;;;;;;;16.67;10.07;;;;;;;20.93;58.15;101995.44;5052459;28;20389;-54
2022/08/30 09:45:59;;;;;;;15.70;10.25;;;;;;;21.14;58.28;102000.97;5052161;28;20112;-54
2022/08/30 09:48:39;;;;;;;14.13;9.63;;;;;;;21.31;58.12;101999.09;5052427;28;20029;-54
2022/08/30 09:51:10;;;;;;;16.08;9.63;;;;;;;21.52;57.33;101998.97;5053435;28;20082;-54
2022/08/30 09:54:09;;;;;;;15.88;9.45;;;;;;;21.79;57.22;102002.22;5053055;28;20029;-56
2022/08/30 09:57:19;;;;;;;16.10;9.52;;;;;;;21.95;55.80;102003.13;5053047;28;20555;-54
2022/08/30 10:00:00;;;;;;;15.57;9.75;;;;;;;21.90;54.09;101999.72;5048922;28;20049;-55
2022/08/30 10:02:36;;;;;;;18.13;9.70;;;;;;;21.84;55.27;101995.53;5053091;28;20114;-54
2022/08/30 10:05:29;;;;;;;17.27;9.80;;;;;;;21.76;54.94;102000.97;5052844;28;20033;-54
2022/08/30 10:08:08;;;;;;;16.13;9.65;;;;;;;21.61;54.48;102004.50;5052679;28;20191;-54
2022/08/30 10:10:55;;;;;;;17.77;9.52;;;;;;;21.49;54.62;102002.47;5052602;28;20122;-55
2022/08/30 10:13:55;;;;;;;16.65;9.82;;;;;;;21.55;55.29;102003.06;5051673;28;20126;-54
2022/08/30 10:16:38;;;;;;;14.10;9.30;;;;;;;21.74;54.69;102006.13;5052488;28;20036;-53
2022/08/30 10:19:35;;;;;;;14.98;9.20;;;;;;;21.97;53.67;102000.78;5052623;28;20054;-54
2022/08/30 10:22:19;;;;;;;13.95;9.00;;;;;;;22.27;53.55;101999.59;5048531;28;20048;-52
2022/08/30 10:24:50;;;;;;;14.40;9.18;;;;;;;22.37;52.16;102010.34;5052398;28;20056;-54
2022/08/30 10:27:30;;;;;;;17.15;9.07;;;;;;;22.38;51.89;101999.91;5052320;28;20040;-54
2022/08/30 10:30:01;;;;;;;13.48;9.48;;;;;;;22.32;51.60;102007.81;5051867;28;20037;-53
2022/08/30 10:32:38;;;;;;;15.10;9.00;;;;;;;22.40;52.05;101998.41;5051627;28;20041;-51
2022/08/30 10:35:11;;;;;;;13.98;9.07;;;;;;;22.56;50.70;101991.97;5034067;28;20021;-53
2022/08/30 10:37:39;;;;;;;;;;;;;;;22.78;50.19;101984.09;5052155;28;20060;-53
2022/08/30 10:43:08;;;;;;;15.85;9.68;;;;;;;23.05;50.28;101985.16;5052095;28;20512;-53
2022/08/30 10:45:36;;;;;;;13.75;9.07;;;;;;;23.04;49.14;101975.88;5052132;28;20029;-55
2022/08/30 10:48:12;;;;;;;16.70;9.35;;;;;;;22.97;50.17;101983.34;5052156;28;20107;-54
2022/08/30 10:50:46;;;;;;;15.35;9.05;;;;;;;23.08;49.39;101992.09;5052331;28;20433;-54
2022/08/30 10:53:17;;;;;;;14.68;9.15;;;;;;;23.08;48.82;101978.78;5052216;28;20078;-53
2022/08/30 10:56:07;;;;;;;15.80;9.27;;;;;;;23.11;48.35;101980.06;5052232;28;20025;-53
2022/08/30 10:58:37;;;;;;;17.38;9.85;;;;;;;23.01;48.89;101975.81;5041468;28;20064;-53
2022/08/30 11:01:24;;;;;;;16.15;9.20;;;;;;;23.14;49.67;101982.16;5050997;28;20028;-54
2022/08/30 11:04:15;;;;;;;15.95;8.80;;;;;;;23.17;49.54;101972.97;5050738;28;20041;-54
2022/08/30 11:06:54;;;;;;;15.50;9.10;;;;;;;23.18;48.37;101977.44;5050605;28;20132;-53
2022/08/30 11:09:22;;;;;;;16.27;9.50;;;;;;;23.21;48.59;101976.72;5050474;28;20036;-54
2022/08/30 11:12:27;;;;;;;16.08;9.50;;;;;;;23.24;49.14;101967.53;5050165;28;20079;-52
2022/08/30 11:14:53;;;;;;;15.65;9.10;;;;;;;23.36;48.67;101963.75;5032335;28;20036;-54
2022/08/30 11:17:37;;;;;;;18.15;9.50;;;;;;;23.41;48.18;101963.50;5050381;28;20452;-53
2022/08/30 11:20:04;;;;;;;14.88;9.15;;;;;;;23.31;47.81;101970.50;5050656;28;20043;-52
2022/08/30 11:22:32;;;;;;;20.83;9.60;;;;;;;23.20;47.48;101969.44;5050071;28;20119;-54